Aeroporto :
LOGIN :

Iscrizione | Disclaimer

   EN    FR    IT 

 










Sommario :    VFR   VFR Marginale   IFR   IFR Intensivo   IFR Molto Intensivo
Visibilità : 
Base nubi : 
>= 8 km
>= 3000ft
5 / 8 km
1000 / 3000 ft
1500m / 5 km
500 / 1000 ft
800 / 1500m
200 / 500 ft
< 800m
< 200 ft
Simboli :   Temporali  Nebbia  Neve Forte  Precipitazioni Forti  Vento > 20 kt
SIGMETs :   Varie  Temporali  Ghiacco  Turbolenza  Onda orograficha  Ceneri Vulcaniche






- Altitudine del aeroporto : 177 ft
- Codice IATA : BRI


LIBD - Palese Macchie Bari

ULTIMO METAR :
  • 200350Z 28007KT 9999 RA SCT045 12/11 Q1010

METARs OBSOLETI :
  • 200320Z 22006KT 9999 RA SCT045 13/11 Q1010
  • 200250Z 23005KT 200V260 9999 RA SCT045 12/11 Q1010
  • 200220Z 24005KT 9999 -RA SCT045 12/11 Q1010
  • 200150Z 23004KT 190V260 CAVOK 12/11 Q1010
  • 200120Z VRB02KT CAVOK 12/12 Q1010

TAF TAF LIBD
Valido dal 20 a 00 ore il 21 a 00 ore UTC


192300Z 2000/2024 VRB06KT 9999 SCT040
TEMPO 2000/2006 4000 TSRA
BECMG 2000/2003 24012KT



MetMap, La meteo Aeronautica in un colpo d'occhio ! - Copyright ORBIFLY Dicembre 2007 - Disclaimer

ORBIFLY MET'MAP TEAM :

Programmazione e sviluppo : Alexandra Zaïnal
Concezione e sviluppo : Baudouin d'Aumeries
Co-Programmazione e sviluppo : Marc-Olivier Méhu
Supporto tecnico e logistico : Manuel Goepfert
Aiuto per la traduzione : Arnaldo La Scala

Contatto : metmap@orbifly.com




FONTI E CREDITI :

   NOAA